sensor_id;sensor_type;location;lat;lon;timestamp;temperature;humidity
58517;DHT22;44308;50.810;0.284;2023-04-09T00:02:15;6.90;99.90
58517;DHT22;44308;50.810;0.284;2023-04-09T00:04:40;6.90;99.90
58517;DHT22;44308;50.810;0.284;2023-04-09T00:07:06;7.00;99.90
58517;DHT22;44308;50.810;0.284;2023-04-09T00:09:32;6.90;99.90
58517;DHT22;44308;50.810;0.284;2023-04-09T00:11:57;6.90;99.90
58517;DHT22;44308;50.810;0.284;2023-04-09T00:14:25;6.90;99.90
58517;DHT22;44308;50.810;0.284;2023-04-09T00:16:51;6.90;99.90
58517;DHT22;44308;50.810;0.284;2023-04-09T00:19:17;6.90;99.90
58517;DHT22;44308;50.810;0.284;2023-04-09T00:21:42;7.00;99.90
58517;DHT22;44308;50.810;0.284;2023-04-09T00:24:08;7.00;99.90
58517;DHT22;44308;50.810;0.284;2023-04-09T00:26:34;7.10;99.90
58517;DHT22;44308;50.810;0.284;2023-04-09T00:29:01;7.20;99.90
58517;DHT22;44308;50.810;0.284;2023-04-09T00:31:27;7.30;99.90
58517;DHT22;44308;50.810;0.284;2023-04-09T00:33:53;7.40;99.90
58517;DHT22;44308;50.810;0.284;2023-04-09T00:36:18;7.50;99.90
58517;DHT22;44308;50.810;0.284;2023-04-09T00:38:44;7.60;99.90
58517;DHT22;44308;50.810;0.284;2023-04-09T00:41:11;7.60;99.90
58517;DHT22;44308;50.810;0.284;2023-04-09T00:43:37;7.70;99.90
58517;DHT22;44308;50.810;0.284;2023-04-09T00:46:03;7.70;99.90
58517;DHT22;44308;50.810;0.284;2023-04-09T00:48:29;7.60;99.90
58517;DHT22;44308;50.810;0.284;2023-04-09T00:50:55;7.60;99.90
58517;DHT22;44308;50.810;0.284;2023-04-09T00:53:20;7.60;99.90
58517;DHT22;44308;50.810;0.284;2023-04-09T00:55:46;7.70;99.90
58517;DHT22;44308;50.810;0.284;2023-04-09T00:58:13;7.70;99.90
58517;DHT22;44308;50.810;0.284;2023-04-09T01:00:39;7.60;99.90
58517;DHT22;44308;50.810;0.284;2023-04-09T01:03:05;7.60;99.90
58517;DHT22;44308;50.810;0.284;2023-04-09T01:11:34;7.60;99.90
58517;DHT22;44308;50.810;0.284;2023-04-09T01:14:24;7.50;99.90
58517;DHT22;44308;50.810;0.284;2023-04-09T01:17:06;7.60;99.90
58517;DHT22;44308;50.810;0.284;2023-04-09T01:19:50;7.60;99.90
58517;DHT22;44308;50.810;0.284;2023-04-09T01:25:28;7.70;99.90
58517;DHT22;44308;50.810;0.284;2023-04-09T01:28:22;7.80;99.90
58517;DHT22;44308;50.810;0.284;2023-04-09T01:30:55;7.80;99.90
58517;DHT22;44308;50.810;0.284;2023-04-09T01:33:23;7.80;99.90
58517;DHT22;44308;50.810;0.284;2023-04-09T01:35:51;7.80;99.90
58517;DHT22;44308;50.810;0.284;2023-04-09T01:38:19;7.80;99.90
58517;DHT22;44308;50.810;0.284;2023-04-09T01:40:47;7.90;99.90
58517;DHT22;44308;50.810;0.284;2023-04-09T01:43:14;7.90;99.90
58517;DHT22;44308;50.810;0.284;2023-04-09T01:45:40;7.90;99.90
58517;DHT22;44308;50.810;0.284;2023-04-09T01:48:07;7.90;99.90
58517;DHT22;44308;50.810;0.284;2023-04-09T01:50:34;7.90;99.90
58517;DHT22;44308;50.810;0.284;2023-04-09T01:53:00;7.90;99.90
58517;DHT22;44308;50.810;0.284;2023-04-09T01:55:26;8.00;99.90
58517;DHT22;44308;50.810;0.284;2023-04-09T01:57:52;8.00;99.90
58517;DHT22;44308;50.810;0.284;2023-04-09T02:00:18;7.90;99.90
58517;DHT22;44308;50.810;0.284;2023-04-09T02:03:37;7.90;99.90
58517;DHT22;44308;50.810;0.284;2023-04-09T02:05:45;7.90;99.90
58517;DHT22;44308;50.810;0.284;2023-04-09T02:08:18;7.90;99.90
58517;DHT22;44308;50.810;0.284;2023-04-09T02:10:48;7.90;99.90
58517;DHT22;44308;50.810;0.284;2023-04-09T02:13:18;7.90;99.90
58517;DHT22;44308;50.810;0.284;2023-04-09T02:15:45;7.80;99.90
58517;DHT22;44308;50.810;0.284;2023-04-09T02:18:25;7.80;99.90
58517;DHT22;44308;50.810;0.284;2023-04-09T02:20:55;7.80;99.90
58517;DHT22;44308;50.810;0.284;2023-04-09T02:23:22;7.80;99.90
58517;DHT22;44308;50.810;0.284;2023-04-09T02:25:48;7.70;99.90
58517;DHT22;44308;50.810;0.284;2023-04-09T02:28:14;7.70;99.90
58517;DHT22;44308;50.810;0.284;2023-04-09T02:30:40;7.70;99.90
58517;DHT22;44308;50.810;0.284;2023-04-09T02:33:06;7.70;99.90
58517;DHT22;44308;50.810;0.284;2023-04-09T02:35:32;7.70;99.90
58517;DHT22;44308;50.810;0.284;2023-04-09T02:37:58;7.70;99.90
58517;DHT22;44308;50.810;0.284;2023-04-09T02:40:24;7.70;99.90
58517;DHT22;44308;50.810;0.284;2023-04-09T02:42:51;7.70;99.90
58517;DHT22;44308;50.810;0.284;2023-04-09T02:45:17;7.60;99.90
58517;DHT22;44308;50.810;0.284;2023-04-09T02:47:43;7.60;99.90
58517;DHT22;44308;50.810;0.284;2023-04-09T02:50:09;7.70;99.90
58517;DHT22;44308;50.810;0.284;2023-04-09T02:52:35;7.70;99.90
58517;DHT22;44308;50.810;0.284;2023-04-09T02:55:01;7.70;99.90
58517;DHT22;44308;50.810;0.284;2023-04-09T02:57:26;7.70;99.90
58517;DHT22;44308;50.810;0.284;2023-04-09T02:59:52;7.70;99.90
58517;DHT22;44308;50.810;0.284;2023-04-09T03:02:18;7.80;99.90
58517;DHT22;44308;50.810;0.284;2023-04-09T03:04:44;7.80;99.90
58517;DHT22;44308;50.810;0.284;2023-04-09T03:07:10;7.80;99.90
58517;DHT22;44308;50.810;0.284;2023-04-09T03:09:36;7.90;99.90
58517;DHT22;44308;50.810;0.284;2023-04-09T03:12:01;7.80;99.90
58517;DHT22;44308;50.810;0.284;2023-04-09T03:14:27;7.90;99.90
58517;DHT22;44308;50.810;0.284;2023-04-09T03:16:54;7.90;99.90
58517;DHT22;44308;50.810;0.284;2023-04-09T03:19:19;7.90;99.90
58517;DHT22;44308;50.810;0.284;2023-04-09T03:21:45;8.00;99.90
58517;DHT22;44308;50.810;0.284;2023-04-09T03:24:14;8.00;99.90
58517;DHT22;44308;50.810;0.284;2023-04-09T03:26:40;8.00;99.90
58517;DHT22;44308;50.810;0.284;2023-04-09T03:29:06;8.00;99.90
58517;DHT22;44308;50.810;0.284;2023-04-09T03:31:32;8.00;99.90
58517;DHT22;44308;50.810;0.284;2023-04-09T03:33:57;8.00;99.90
58517;DHT22;44308;50.810;0.284;2023-04-09T03:36:23;8.10;99.90
58517;DHT22;44308;50.810;0.284;2023-04-09T03:38:49;8.10;99.90
58517;DHT22;44308;50.810;0.284;2023-04-09T03:41:15;8.10;99.90
58517;DHT22;44308;50.810;0.284;2023-04-09T03:43:41;8.10;99.90
58517;DHT22;44308;50.810;0.284;2023-04-09T03:46:16;8.20;99.90
58517;DHT22;44308;50.810;0.284;2023-04-09T03:48:43;8.20;99.90
58517;DHT22;44308;50.810;0.284;2023-04-09T03:51:12;8.10;99.90
58517;DHT22;44308;50.810;0.284;2023-04-09T03:53:39;8.20;99.90
58517;DHT22;44308;50.810;0.284;2023-04-09T03:56:05;8.10;99.90
58517;DHT22;44308;50.810;0.284;2023-04-09T03:58:31;8.20;99.90
58517;DHT22;44308;50.810;0.284;2023-04-09T04:00:56;8.10;99.90
58517;DHT22;44308;50.810;0.284;2023-04-09T04:03:22;8.20;99.90
58517;DHT22;44308;50.810;0.284;2023-04-09T04:05:48;8.10;99.90
58517;DHT22;44308;50.810;0.284;2023-04-09T04:08:13;8.10;99.90
58517;DHT22;44308;50.810;0.284;2023-04-09T04:10:39;8.10;99.90
58517;DHT22;44308;50.810;0.284;2023-04-09T04:13:05;8.10;99.90
58517;DHT22;44308;50.810;0.284;2023-04-09T04:15:38;8.10;99.90
58517;DHT22;44308;50.810;0.284;2023-04-09T04:18:03;8.10;99.90
58517;DHT22;44308;50.810;0.284;2023-04-09T04:20:32;8.10;99.90
58517;DHT22;44308;50.810;0.284;2023-04-09T04:22:57;8.10;99.90
58517;DHT22;44308;50.810;0.284;2023-04-09T04:25:23;8.10;99.90
58517;DHT22;44308;50.810;0.284;2023-04-09T04:27:49;8.10;99.90
58517;DHT22;44308;50.810;0.284;2023-04-09T04:30:15;8.10;99.90
58517;DHT22;44308;50.810;0.284;2023-04-09T04:32:40;8.10;99.90
58517;DHT22;44308;50.810;0.284;2023-04-09T04:35:07;8.10;99.90
58517;DHT22;44308;50.810;0.284;2023-04-09T04:37:33;8.20;99.90
58517;DHT22;44308;50.810;0.284;2023-04-09T04:40:00;8.10;99.90
58517;DHT22;44308;50.810;0.284;2023-04-09T04:42:27;8.10;99.90
58517;DHT22;44308;50.810;0.284;2023-04-09T04:44:52;8.10;99.90
58517;DHT22;44308;50.810;0.284;2023-04-09T04:47:18;8.10;99.90
58517;DHT22;44308;50.810;0.284;2023-04-09T04:49:44;8.10;99.90
58517;DHT22;44308;50.810;0.284;2023-04-09T04:52:10;8.10;99.90
58517;DHT22;44308;50.810;0.284;2023-04-09T04:54:36;8.10;99.90
58517;DHT22;44308;50.810;0.284;2023-04-09T04:57:01;8.10;99.90
58517;DHT22;44308;50.810;0.284;2023-04-09T04:59:28;8.00;99.90
58517;DHT22;44308;50.810;0.284;2023-04-09T05:01:53;8.00;99.90
58517;DHT22;44308;50.810;0.284;2023-04-09T05:04:19;8.00;99.90
58517;DHT22;44308;50.810;0.284;2023-04-09T05:06:48;7.90;99.90
58517;DHT22;44308;50.810;0.284;2023-04-09T05:09:13;7.90;99.90
58517;DHT22;44308;50.810;0.284;2023-04-09T05:11:40;7.90;99.90
58517;DHT22;44308;50.810;0.284;2023-04-09T05:14:05;7.90;99.90
58517;DHT22;44308;50.810;0.284;2023-04-09T05:16:31;7.90;99.90
58517;DHT22;44308;50.810;0.284;2023-04-09T05:18:57;7.90;99.90
58517;DHT22;44308;50.810;0.284;2023-04-09T05:21:23;7.90;99.90
58517;DHT22;44308;50.810;0.284;2023-04-09T05:23:48;8.00;99.90
58517;DHT22;44308;50.810;0.284;2023-04-09T05:26:14;8.00;99.90
58517;DHT22;44308;50.810;0.284;2023-04-09T05:28:39;8.00;99.90
58517;DHT22;44308;50.810;0.284;2023-04-09T05:31:05;8.00;99.90
58517;DHT22;44308;50.810;0.284;2023-04-09T05:33:37;8.10;99.90
58517;DHT22;44308;50.810;0.284;2023-04-09T05:36:03;8.10;99.90
58517;DHT22;44308;50.810;0.284;2023-04-09T05:38:29;8.20;99.90
58517;DHT22;44308;50.810;0.284;2023-04-09T05:40:55;8.30;99.90
58517;DHT22;44308;50.810;0.284;2023-04-09T05:43:21;8.30;99.90
58517;DHT22;44308;50.810;0.284;2023-04-09T05:45:47;8.30;99.90
58517;DHT22;44308;50.810;0.284;2023-04-09T05:48:13;8.40;99.90
58517;DHT22;44308;50.810;0.284;2023-04-09T05:50:38;8.40;99.90
58517;DHT22;44308;50.810;0.284;2023-04-09T05:53:04;8.40;99.90
58517;DHT22;44308;50.810;0.284;2023-04-09T05:55:31;8.40;99.90
58517;DHT22;44308;50.810;0.284;2023-04-09T05:57:57;8.40;99.90
58517;DHT22;44308;50.810;0.284;2023-04-09T06:00:23;8.40;99.90
58517;DHT22;44308;50.810;0.284;2023-04-09T06:02:49;8.40;99.90
58517;DHT22;44308;50.810;0.284;2023-04-09T06:05:15;8.40;99.90
58517;DHT22;44308;50.810;0.284;2023-04-09T06:07:41;8.40;99.90
58517;DHT22;44308;50.810;0.284;2023-04-09T06:10:07;8.40;99.90
58517;DHT22;44308;50.810;0.284;2023-04-09T06:12:36;8.40;99.90
58517;DHT22;44308;50.810;0.284;2023-04-09T06:15:03;8.40;99.90
58517;DHT22;44308;50.810;0.284;2023-04-09T06:17:29;8.50;99.90
58517;DHT22;44308;50.810;0.284;2023-04-09T06:19:54;8.50;99.90
58517;DHT22;44308;50.810;0.284;2023-04-09T06:22:20;8.50;99.90
58517;DHT22;44308;50.810;0.284;2023-04-09T06:24:46;8.50;99.90
58517;DHT22;44308;50.810;0.284;2023-04-09T06:27:12;8.60;99.90
58517;DHT22;44308;50.810;0.284;2023-04-09T06:29:37;8.60;99.90
58517;DHT22;44308;50.810;0.284;2023-04-09T06:32:04;8.70;99.90
58517;DHT22;44308;50.810;0.284;2023-04-09T06:34:30;8.70;99.90
58517;DHT22;44308;50.810;0.284;2023-04-09T06:36:56;8.70;99.90
58517;DHT22;44308;50.810;0.284;2023-04-09T06:39:21;8.80;99.90
58517;DHT22;44308;50.810;0.284;2023-04-09T06:41:47;8.80;99.90
58517;DHT22;44308;50.810;0.284;2023-04-09T06:44:13;8.80;99.90
58517;DHT22;44308;50.810;0.284;2023-04-09T06:46:39;8.90;99.90
58517;DHT22;44308;50.810;0.284;2023-04-09T06:49:04;8.90;99.90
58517;DHT22;44308;50.810;0.284;2023-04-09T06:51:30;9.00;99.90
58517;DHT22;44308;50.810;0.284;2023-04-09T06:53:56;9.00;99.90
58517;DHT22;44308;50.810;0.284;2023-04-09T06:56:22;9.10;99.90
58517;DHT22;44308;50.810;0.284;2023-04-09T06:58:47;9.20;99.90
58517;DHT22;44308;50.810;0.284;2023-04-09T07:01:13;9.20;99.90
58517;DHT22;44308;50.810;0.284;2023-04-09T07:03:39;9.20;99.90
58517;DHT22;44308;50.810;0.284;2023-04-09T07:06:05;9.40;99.90
58517;DHT22;44308;50.810;0.284;2023-04-09T07:08:31;9.50;99.90
58517;DHT22;44308;50.810;0.284;2023-04-09T07:10:57;9.40;99.90
58517;DHT22;44308;50.810;0.284;2023-04-09T07:13:22;9.40;99.90
58517;DHT22;44308;50.810;0.284;2023-04-09T07:15:48;9.40;99.90
58517;DHT22;44308;50.810;0.284;2023-04-09T07:18:14;9.40;99.90
58517;DHT22;44308;50.810;0.284;2023-04-09T07:20:39;9.40;99.90
58517;DHT22;44308;50.810;0.284;2023-04-09T07:23:06;9.40;99.90
58517;DHT22;44308;50.810;0.284;2023-04-09T07:25:32;9.40;99.90
58517;DHT22;44308;50.810;0.284;2023-04-09T07:27:58;9.40;99.90
58517;DHT22;44308;50.810;0.284;2023-04-09T07:30:24;9.30;99.90
58517;DHT22;44308;50.810;0.284;2023-04-09T07:32:50;9.40;99.90
58517;DHT22;44308;50.810;0.284;2023-04-09T07:35:16;9.40;99.90
58517;DHT22;44308;50.810;0.284;2023-04-09T07:37:43;9.50;99.90
58517;DHT22;44308;50.810;0.284;2023-04-09T07:40:11;9.70;99.90
58517;DHT22;44308;50.810;0.284;2023-04-09T07:42:38;9.80;99.90
58517;DHT22;44308;50.810;0.284;2023-04-09T07:45:05;10.00;99.90
58517;DHT22;44308;50.810;0.284;2023-04-09T07:47:31;10.20;99.90
58517;DHT22;44308;50.810;0.284;2023-04-09T07:49:57;10.40;99.90
58517;DHT22;44308;50.810;0.284;2023-04-09T07:52:23;10.40;99.90
58517;DHT22;44308;50.810;0.284;2023-04-09T07:54:49;10.60;99.90
58517;DHT22;44308;50.810;0.284;2023-04-09T07:57:14;10.70;99.90
58517;DHT22;44308;50.810;0.284;2023-04-09T07:59:40;10.90;99.90
58517;DHT22;44308;50.810;0.284;2023-04-09T08:02:09;10.90;99.90
58517;DHT22;44308;50.810;0.284;2023-04-09T08:04:35;11.10;99.90
58517;DHT22;44308;50.810;0.284;2023-04-09T08:07:01;11.20;99.90
58517;DHT22;44308;50.810;0.284;2023-04-09T08:09:26;11.30;99.90
58517;DHT22;44308;50.810;0.284;2023-04-09T08:11:52;11.30;99.90
58517;DHT22;44308;50.810;0.284;2023-04-09T08:14:18;11.30;99.90
58517;DHT22;44308;50.810;0.284;2023-04-09T08:16:45;11.30;99.90
58517;DHT22;44308;50.810;0.284;2023-04-09T08:19:12;11.50;99.90
58517;DHT22;44308;50.810;0.284;2023-04-09T08:21:40;11.50;99.90
58517;DHT22;44308;50.810;0.284;2023-04-09T08:24:08;11.70;99.90
58517;DHT22;44308;50.810;0.284;2023-04-09T08:26:36;11.60;99.90
58517;DHT22;44308;50.810;0.284;2023-04-09T08:29:02;11.40;99.90
58517;DHT22;44308;50.810;0.284;2023-04-09T08:31:28;11.50;99.90
58517;DHT22;44308;50.810;0.284;2023-04-09T08:33:53;11.40;99.90
58517;DHT22;44308;50.810;0.284;2023-04-09T08:36:20;11.40;99.90
58517;DHT22;44308;50.810;0.284;2023-04-09T08:38:45;11.50;99.90
58517;DHT22;44308;50.810;0.284;2023-04-09T08:43:45;11.50;99.90
58517;DHT22;44308;50.810;0.284;2023-04-09T08:46:11;11.60;99.90
58517;DHT22;44308;50.810;0.284;2023-04-09T08:48:38;11.60;99.90
58517;DHT22;44308;50.810;0.284;2023-04-09T08:51:06;11.70;99.90
58517;DHT22;44308;50.810;0.284;2023-04-09T08:53:33;12.00;99.90
58517;DHT22;44308;50.810;0.284;2023-04-09T08:55:59;12.00;99.90
58517;DHT22;44308;50.810;0.284;2023-04-09T08:58:25;12.00;99.90
58517;DHT22;44308;50.810;0.284;2023-04-09T09:00:51;11.80;99.90
58517;DHT22;44308;50.810;0.284;2023-04-09T09:03:16;11.50;99.90
58517;DHT22;44308;50.810;0.284;2023-04-09T09:05:44;11.30;99.90
58517;DHT22;44308;50.810;0.284;2023-04-09T09:08:21;11.30;99.90
58517;DHT22;44308;50.810;0.284;2023-04-09T09:10:48;11.30;99.90
58517;DHT22;44308;50.810;0.284;2023-04-09T09:13:24;11.30;99.90
58517;DHT22;44308;50.810;0.284;2023-04-09T09:15:54;11.20;99.90
58517;DHT22;44308;50.810;0.284;2023-04-09T09:18:42;11.20;99.90
58517;DHT22;44308;50.810;0.284;2023-04-09T09:21:09;11.10;99.90
58517;DHT22;44308;50.810;0.284;2023-04-09T09:23:35;11.00;99.90
58517;DHT22;44308;50.810;0.284;2023-04-09T09:26:13;11.00;99.90
58517;DHT22;44308;50.810;0.284;2023-04-09T09:28:40;11.20;99.90
58517;DHT22;44308;50.810;0.284;2023-04-09T09:31:07;11.30;99.90
58517;DHT22;44308;50.810;0.284;2023-04-09T09:33:33;11.50;99.90
58517;DHT22;44308;50.810;0.284;2023-04-09T09:35:59;11.40;99.90
58517;DHT22;44308;50.810;0.284;2023-04-09T09:38:26;11.60;99.90
58517;DHT22;44308;50.810;0.284;2023-04-09T09:40:52;11.50;99.90
58517;DHT22;44308;50.810;0.284;2023-04-09T09:43:18;11.30;99.90
58517;DHT22;44308;50.810;0.284;2023-04-09T09:45:46;11.20;99.90
58517;DHT22;44308;50.810;0.284;2023-04-09T09:48:11;11.30;99.90
58517;DHT22;44308;50.810;0.284;2023-04-09T09:50:39;11.10;99.90
58517;DHT22;44308;50.810;0.284;2023-04-09T09:53:09;11.00;99.90
58517;DHT22;44308;50.810;0.284;2023-04-09T09:55:39;11.10;99.90
58517;DHT22;44308;50.810;0.284;2023-04-09T09:58:16;11.10;99.90
58517;DHT22;44308;50.810;0.284;2023-04-09T10:00:45;11.30;99.90
58517;DHT22;44308;50.810;0.284;2023-04-09T10:03:24;11.40;99.90
58517;DHT22;44308;50.810;0.284;2023-04-09T10:05:52;11.50;99.90
58517;DHT22;44308;50.810;0.284;2023-04-09T10:08:20;11.40;99.90
58517;DHT22;44308;50.810;0.284;2023-04-09T10:10:46;11.10;99.90
58517;DHT22;44308;50.810;0.284;2023-04-09T10:13:39;11.00;99.90
58517;DHT22;44308;50.810;0.284;2023-04-09T10:16:06;11.10;99.90
58517;DHT22;44308;50.810;0.284;2023-04-09T10:18:32;11.00;99.90
58517;DHT22;44308;50.810;0.284;2023-04-09T10:21:05;11.00;99.90
58517;DHT22;44308;50.810;0.284;2023-04-09T10:23:43;11.10;99.90
58517;DHT22;44308;50.810;0.284;2023-04-09T10:26:09;11.10;99.90
58517;DHT22;44308;50.810;0.284;2023-04-09T10:28:39;11.00;99.90
58517;DHT22;44308;50.810;0.284;2023-04-09T10:31:06;10.80;99.90
58517;DHT22;44308;50.810;0.284;2023-04-09T10:33:33;10.90;99.90
58517;DHT22;44308;50.810;0.284;2023-04-09T10:36:13;11.00;99.90
58517;DHT22;44308;50.810;0.284;2023-04-09T10:38:46;11.10;99.90
58517;DHT22;44308;50.810;0.284;2023-04-09T10:41:14;11.20;99.90
58517;DHT22;44308;50.810;0.284;2023-04-09T10:43:41;11.50;99.90
58517;DHT22;44308;50.810;0.284;2023-04-09T10:46:28;11.80;99.90
58517;DHT22;44308;50.810;0.284;2023-04-09T10:49:23;11.90;99.90
58517;DHT22;44308;50.810;0.284;2023-04-09T10:51:52;11.80;99.90
58517;DHT22;44308;50.810;0.284;2023-04-09T10:57:18;11.30;99.90
58517;DHT22;44308;50.810;0.284;2023-04-09T11:02:30;11.50;99.90
58517;DHT22;44308;50.810;0.284;2023-04-09T11:07:39;11.70;99.90
58517;DHT22;44308;50.810;0.284;2023-04-09T11:10:06;11.60;99.90
58517;DHT22;44308;50.810;0.284;2023-04-09T11:12:32;11.60;99.90
58517;DHT22;44308;50.810;0.284;2023-04-09T11:14:58;11.60;99.90
58517;DHT22;44308;50.810;0.284;2023-04-09T11:17:24;11.40;99.90
58517;DHT22;44308;50.810;0.284;2023-04-09T11:19:50;11.10;99.90
58517;DHT22;44308;50.810;0.284;2023-04-09T11:22:15;11.20;99.90
58517;DHT22;44308;50.810;0.284;2023-04-09T11:24:42;11.20;99.90
58517;DHT22;44308;50.810;0.284;2023-04-09T11:27:08;11.50;99.90
58517;DHT22;44308;50.810;0.284;2023-04-09T11:29:34;11.70;99.90
58517;DHT22;44308;50.810;0.284;2023-04-09T11:32:00;11.80;99.90
58517;DHT22;44308;50.810;0.284;2023-04-09T11:34:30;11.60;99.90
58517;DHT22;44308;50.810;0.284;2023-04-09T11:36:56;11.60;99.90
58517;DHT22;44308;50.810;0.284;2023-04-09T11:39:24;11.50;99.90
58517;DHT22;44308;50.810;0.284;2023-04-09T11:41:50;11.30;99.90
58517;DHT22;44308;50.810;0.284;2023-04-09T11:44:16;11.10;99.90
58517;DHT22;44308;50.810;0.284;2023-04-09T11:46:42;11.20;99.90
58517;DHT22;44308;50.810;0.284;2023-04-09T11:49:08;11.20;99.90
58517;DHT22;44308;50.810;0.284;2023-04-09T11:51:34;11.50;99.90
58517;DHT22;44308;50.810;0.284;2023-04-09T11:54:01;11.60;99.90
58517;DHT22;44308;50.810;0.284;2023-04-09T11:56:31;11.50;99.90
58517;DHT22;44308;50.810;0.284;2023-04-09T11:58:57;11.50;99.90
58517;DHT22;44308;50.810;0.284;2023-04-09T12:01:22;11.50;99.90
58517;DHT22;44308;50.810;0.284;2023-04-09T12:03:52;11.40;99.90
58517;DHT22;44308;50.810;0.284;2023-04-09T12:06:20;11.60;99.90
58517;DHT22;44308;50.810;0.284;2023-04-09T12:08:51;11.90;99.90
58517;DHT22;44308;50.810;0.284;2023-04-09T12:11:17;11.90;99.90
58517;DHT22;44308;50.810;0.284;2023-04-09T12:13:44;12.20;99.90
58517;DHT22;44308;50.810;0.284;2023-04-09T12:16:13;12.30;99.90
58517;DHT22;44308;50.810;0.284;2023-04-09T12:18:39;12.30;99.90
58517;DHT22;44308;50.810;0.284;2023-04-09T12:21:05;12.10;99.90
58517;DHT22;44308;50.810;0.284;2023-04-09T12:23:32;12.40;99.90
58517;DHT22;44308;50.810;0.284;2023-04-09T12:25:58;12.60;99.90
58517;DHT22;44308;50.810;0.284;2023-04-09T12:28:27;12.50;99.90
58517;DHT22;44308;50.810;0.284;2023-04-09T12:30:53;12.70;99.90
58517;DHT22;44308;50.810;0.284;2023-04-09T12:33:20;12.80;99.90
58517;DHT22;44308;50.810;0.284;2023-04-09T12:35:46;12.90;99.90
58517;DHT22;44308;50.810;0.284;2023-04-09T12:38:12;12.70;99.90
58517;DHT22;44308;50.810;0.284;2023-04-09T12:40:38;12.80;99.90
58517;DHT22;44308;50.810;0.284;2023-04-09T12:43:04;12.90;99.90
58517;DHT22;44308;50.810;0.284;2023-04-09T12:45:31;12.90;99.90
58517;DHT22;44308;50.810;0.284;2023-04-09T12:47:57;12.70;99.90
58517;DHT22;44308;50.810;0.284;2023-04-09T12:50:23;12.60;99.90
58517;DHT22;44308;50.810;0.284;2023-04-09T12:52:49;12.40;99.90
58517;DHT22;44308;50.810;0.284;2023-04-09T12:55:15;12.60;99.90
58517;DHT22;44308;50.810;0.284;2023-04-09T12:57:44;12.70;99.90
58517;DHT22;44308;50.810;0.284;2023-04-09T13:00:13;12.70;99.90
58517;DHT22;44308;50.810;0.284;2023-04-09T13:02:39;12.90;99.90
58517;DHT22;44308;50.810;0.284;2023-04-09T13:05:05;12.80;99.90
58517;DHT22;44308;50.810;0.284;2023-04-09T13:07:31;12.80;99.90
58517;DHT22;44308;50.810;0.284;2023-04-09T13:09:56;12.50;99.90
58517;DHT22;44308;50.810;0.284;2023-04-09T13:12:22;12.30;99.90
58517;DHT22;44308;50.810;0.284;2023-04-09T13:14:49;12.40;99.90
58517;DHT22;44308;50.810;0.284;2023-04-09T13:17:15;12.70;99.90
58517;DHT22;44308;50.810;0.284;2023-04-09T13:19:40;12.90;99.90
58517;DHT22;44308;50.810;0.284;2023-04-09T13:22:06;12.90;99.90
58517;DHT22;44308;50.810;0.284;2023-04-09T13:24:36;12.70;99.90
58517;DHT22;44308;50.810;0.284;2023-04-09T13:27:05;12.20;99.90
58517;DHT22;44308;50.810;0.284;2023-04-09T13:29:31;12.10;99.90
58517;DHT22;44308;50.810;0.284;2023-04-09T13:31:57;12.00;99.90
58517;DHT22;44308;50.810;0.284;2023-04-09T13:34:23;12.20;99.90
58517;DHT22;44308;50.810;0.284;2023-04-09T13:36:49;12.50;99.90
58517;DHT22;44308;50.810;0.284;2023-04-09T13:39:15;12.60;99.90
58517;DHT22;44308;50.810;0.284;2023-04-09T13:41:41;12.60;99.90
58517;DHT22;44308;50.810;0.284;2023-04-09T13:44:07;12.80;99.90
58517;DHT22;44308;50.810;0.284;2023-04-09T13:46:32;12.50;99.90
58517;DHT22;44308;50.810;0.284;2023-04-09T13:48:58;12.40;99.90
58517;DHT22;44308;50.810;0.284;2023-04-09T13:51:26;12.40;99.90
58517;DHT22;44308;50.810;0.284;2023-04-09T13:53:53;12.70;99.90
58517;DHT22;44308;50.810;0.284;2023-04-09T13:56:18;12.80;99.90
58517;DHT22;44308;50.810;0.284;2023-04-09T13:58:44;12.80;99.90
58517;DHT22;44308;50.810;0.284;2023-04-09T14:01:11;12.70;99.90
58517;DHT22;44308;50.810;0.284;2023-04-09T14:03:37;12.60;99.90
58517;DHT22;44308;50.810;0.284;2023-04-09T14:06:06;12.80;99.90
58517;DHT22;44308;50.810;0.284;2023-04-09T14:08:33;12.80;99.90
58517;DHT22;44308;50.810;0.284;2023-04-09T14:10:59;12.50;99.90
58517;DHT22;44308;50.810;0.284;2023-04-09T14:13:25;12.10;99.90
58517;DHT22;44308;50.810;0.284;2023-04-09T14:15:51;11.90;99.90
58517;DHT22;44308;50.810;0.284;2023-04-09T14:18:17;11.80;99.90
58517;DHT22;44308;50.810;0.284;2023-04-09T14:20:43;11.90;99.90
58517;DHT22;44308;50.810;0.284;2023-04-09T14:23:08;12.00;99.90
58517;DHT22;44308;50.810;0.284;2023-04-09T14:25:34;12.30;99.90
58517;DHT22;44308;50.810;0.284;2023-04-09T14:28:00;12.20;99.90
58517;DHT22;44308;50.810;0.284;2023-04-09T14:30:27;12.00;99.90
58517;DHT22;44308;50.810;0.284;2023-04-09T14:32:52;11.90;99.90
58517;DHT22;44308;50.810;0.284;2023-04-09T14:35:18;11.70;99.90
58517;DHT22;44308;50.810;0.284;2023-04-09T14:37:44;11.80;99.90
58517;DHT22;44308;50.810;0.284;2023-04-09T14:40:11;11.90;99.90
58517;DHT22;44308;50.810;0.284;2023-04-09T14:42:37;11.80;99.90
58517;DHT22;44308;50.810;0.284;2023-04-09T14:45:03;11.50;99.90
58517;DHT22;44308;50.810;0.284;2023-04-09T14:47:29;11.50;99.90
58517;DHT22;44308;50.810;0.284;2023-04-09T14:49:55;11.60;99.90
58517;DHT22;44308;50.810;0.284;2023-04-09T14:52:21;11.60;99.90
58517;DHT22;44308;50.810;0.284;2023-04-09T14:54:47;11.50;99.90
58517;DHT22;44308;50.810;0.284;2023-04-09T14:57:13;11.60;99.90
58517;DHT22;44308;50.810;0.284;2023-04-09T14:59:38;11.80;99.90
58517;DHT22;44308;50.810;0.284;2023-04-09T15:02:04;11.70;99.90
58517;DHT22;44308;50.810;0.284;2023-04-09T15:04:30;11.90;99.90
58517;DHT22;44308;50.810;0.284;2023-04-09T15:06:56;11.90;99.90
58517;DHT22;44308;50.810;0.284;2023-04-09T15:09:21;11.90;99.90
58517;DHT22;44308;50.810;0.284;2023-04-09T15:11:47;11.90;99.90
58517;DHT22;44308;50.810;0.284;2023-04-09T15:14:13;11.80;99.90
58517;DHT22;44308;50.810;0.284;2023-04-09T15:16:38;11.80;99.90
58517;DHT22;44308;50.810;0.284;2023-04-09T15:19:04;11.90;99.90
58517;DHT22;44308;50.810;0.284;2023-04-09T15:21:30;12.20;99.90
58517;DHT22;44308;50.810;0.284;2023-04-09T15:23:56;12.30;99.90
58517;DHT22;44308;50.810;0.284;2023-04-09T15:26:24;12.20;99.90
58517;DHT22;44308;50.810;0.284;2023-04-09T15:28:50;11.90;99.90
58517;DHT22;44308;50.810;0.284;2023-04-09T15:31:18;11.60;99.90
58517;DHT22;44308;50.810;0.284;2023-04-09T15:33:43;11.60;99.90
58517;DHT22;44308;50.810;0.284;2023-04-09T15:36:10;11.40;99.90
58517;DHT22;44308;50.810;0.284;2023-04-09T15:38:39;11.30;99.90
58517;DHT22;44308;50.810;0.284;2023-04-09T15:41:04;11.20;99.90
58517;DHT22;44308;50.810;0.284;2023-04-09T15:43:30;11.00;99.90
58517;DHT22;44308;50.810;0.284;2023-04-09T15:45:56;11.00;99.90
58517;DHT22;44308;50.810;0.284;2023-04-09T15:48:21;10.90;99.90
58517;DHT22;44308;50.810;0.284;2023-04-09T15:50:47;10.80;99.90
58517;DHT22;44308;50.810;0.284;2023-04-09T15:53:14;10.90;99.90
58517;DHT22;44308;50.810;0.284;2023-04-09T15:55:40;10.80;99.90
58517;DHT22;44308;50.810;0.284;2023-04-09T15:58:06;10.70;99.90